Aérodrome :
LOGIN :

S'inscrire | Disclaimer

   EN    FR    IT 

 










Légende :    VFR   VFR Marginal   IFR   IFR Intensif   IFR Très Intensif
Visi : 
Plafond : 
>= 8 km
>= 3000ft
5 à 8 km
1000 à 3000 ft
1500m à 5 km
500 à 1000 ft
800 à 1500m
200 à 500 ft
< 800m
< 200 ft
Symboles :   Orages  Brouillard  Fortes neiges  Fortes précipitations  Vent > 20 kt
SIGMETs :   Divers  Orages  Givrage  Turbulence  Onde Orograph.  Cendres Volcan.







- Altitude de l'aérodrome : 147 ft
- Code IATA : DUS


EDDL - Düsseldorf Int.

DERNIER METAR :
  • 200720Z 22010KT 9999 -RA FEW011 SCT017 OVC032 04/02 Q1020 NOSIG

METARs EXPIRÉS :
  • 200650Z 22007KT 9999 FEW035 BKN047 OVC065 04/02 Q1020 NOSIG
  • 200620Z 22009KT 9999 FEW040 BKN050 BKN065 04/02 Q1020 NOSIG
  • 200550Z 22007KT CAVOK 04/02 Q1020 NOSIG
  • 200520Z 22009KT CAVOK 04/02 Q1020 NOSIG
  • 200450Z 22008KT CAVOK 04/02 Q1020 NOSIG

TAF TAF EDDL
Valide du 20 à 06h jusqu'au 21 à 12h UTC


200500Z 2006/2112 24008KT 9999 SCT030
BECMG 2008/2011 18011KT
TEMPO 2010/2014 RA
BECMG 2012/2014 BKN012
TEMPO 2014/2102 3000 DZRA BKN007
PROB30
TEMPO 2018/2102 2000 DZ BKN004
BECMG 2019/2022 24015G25KT
TEMPO 2102/2112 3500 -DZRA BR BKN007
BECMG 2102/2105 24012KT
Pas de NOTAMs connus pour ce terrain.



MET'MAP, la Météo Aéronautique d'un coup d'oeil ! - Copyright ORBIFLY Décembre 2007 - Disclaimer

ORBIFLY MET'MAP TEAM :

Programmation & Développement : Alexandra Zaïnal
Conception & Développement : Baudouin d'Aumeries
Co-Programmation & Développement : Marc-Olivier Méhu
Soutien technique & logistique : Manuel Goepfert

Contact : metmap@orbifly.com




SOURCES & CREDITS :

   NOAA